Data for 08/07/2016

Time Sea-Level Adjusted Pressure Absolute Pressure Temperature Relative Humidity Dew Point   
(mb) (inHg) (mb) (inHg) (C) (F) (%) (C) (F)
00:05 1018 30.06 848 25.04 14.1 57.3 71 8.9 48
00:10 1018 30.06 848 25.04 13.9 57 72 8.9 48
00:15 1018 30.06 848 25.04 13.7 56.7 72 8.9 48
00:20 1018 30.06 848 25.04 13.5 56.3 73 8.8 47.9
00:25 1018 30.06 848 25.04 13.6 56.4 73 8.8 47.8
00:30 1018 30.06 848 25.04 13.5 56.3 73 8.8 47.8
00:35 1018 30.06 848 25.04 13.6 56.4 72 8.8 47.8
00:40 1019 30.09 848 25.04 13.4 56.1 73 8.8 47.8
00:45 1019 30.09 848 25.04 13.2 55.7 74 8.6 47.5
00:50 1018 30.06 848 25.04 12.8 55.1 74 8.4 47.1
00:55 1018 30.06 848 25.04 12.7 54.8 74 8.2 46.7
01:00 1018 30.06 848 25.04 12.6 54.7 74 8.1 46.7
01:05 1019 30.09 848 25.04 12.6 54.6 74 8 46.4
01:10 1019 30.09 848 25.04 12.6 54.7 76 8.4 47.1
01:15 1019 30.09 848 25.04 12.3 54.2 75 8.1 46.5
01:20 1019 30.09 848 25.04 12.4 54.3 76 8.2 46.8
01:25 1019 30.09 848 25.04 12.1 53.7 77 8.2 46.7
01:30 1019 30.09 848 25.04 11.8 53.2 77 7.9 46.3
01:35 1019 30.09 848 25.04 11.9 53.4 76 7.8 46.1
01:40 1019 30.09 848 25.04 12.1 53.7 75 7.8 46.1
01:45 1019 30.09 848 25.04 12.2 53.9 75 7.9 46.2
01:50 1018 30.06 848 25.04 12 53.7 76 7.9 46.2
01:55 1018 30.06 847 25.01 12 53.6 75 7.7 45.9
02:00 1018 30.06 847 25.01 12 53.6 75 7.8 46.1
02:05 1018 30.06 847 25.01 11.7 53 76 7.6 45.7
02:10 1018 30.06 847 25.01 11.5 52.6 77 7.6 45.7
02:15 1018 30.06 847 25.01 11.4 52.6 78 7.7 45.9
02:20 1018 30.06 848 25.04 11.5 52.8 77 7.7 45.9
02:25 1018 30.06 847 25.01 11.6 52.8 76 7.6 45.6
02:30 1018 30.06 847 25.01 11.7 53.1 75 7.4 45.2
02:35 1018 30.06 847 25.01 11.9 53.3 74 7.5 45.4
02:40 1018 30.06 847 25.01 12.1 53.7 75 7.7 45.9
02:45 1018 30.06 847 25.01 12.3 54.1 74 7.9 46.2
02:50 1018 30.06 847 25.01 12.8 55 72 8 46.4
02:55 1018 30.06 847 25.01 13.2 55.8 72 8.2 46.8
03:00 1018 30.06 847 25.01 13.2 55.8 72 8.4 47.1
03:05 1018 30.06 847 25.01 13.1 55.6 73 8.4 47.1
03:10 1018 30.06 847 25.01 13 55.4 73 8.4 47
03:15 1018 30.06 847 25.01 12.5 54.4 75 8.2 46.8
03:20 1018 30.06 848 25.04 12.4 54.3 75 8.1 46.6
03:25 1018 30.06 848 25.04 12.4 54.2 75 8.1 46.5
03:30 1018 30.06 848 25.04 12.1 53.8 75 7.8 46
03:35 1018 30.06 848 25.04 11.6 52.9 75 7.3 45.2
03:40 1018 30.06 848 25.04 11.5 52.7 74 7.2 44.9
03:45 1018 30.06 848 25.04 11.5 52.7 75 7.2 44.9
03:50 1018 30.06 847 25.01 11.5 52.7 74 7.1 44.7
03:55 1018 30.06 847 25.01 11.4 52.6 74 7 44.5
04:00 1018 30.06 847 25.01 11.6 52.8 74 7.1 44.7
04:05 1018 30.06 847 25.01 11.6 52.9 73 6.9 44.5
04:10 1018 30.06 847 25.01 11.6 52.9 74 7.1 44.7
04:15 1018 30.06 847 25.01 11.4 52.6 74 7 44.6
04:20 1018 30.06 847 25.01 11.4 52.6 74 7.1 44.7
04:25 1018 30.06 847 25.01 11.2 52.2 76 7.2 44.9
04:30 1018 30.06 847 25.01 11 51.7 76 7 44.6
04:35 1018 30.06 847 25.01 10.9 51.7 76 7 44.5
04:40 1018 30.06 847 25.01 11.1 52.1 76 7.1 44.8
04:45 1018 30.06 847 25.01 11 51.8 77 7.1 44.9
04:50 1017 30.03 847 25.01 10.9 51.7 77 7 44.6
04:55 1017 30.03 847 25.01 11 51.7 76 6.9 44.5
05:00 1018 30.06 847 25.01 11.1 51.9 74 6.7 44.1
05:05 1018 30.06 847 25.01 11.1 52 74 6.6 43.9
05:10 1017 30.03 847 25.01 11 51.8 75 6.7 44
05:15 1017 30.03 847 25.01 10.7 51.2 76 6.6 43.8
05:20 1017 30.03 847 25.01 10.7 51.2 75 6.4 43.6
05:25 1017 30.03 847 25.01 11 51.8 74 6.5 43.6
05:30 1017 30.03 846 24.98 11 51.9 74 6.6 43.9
05:35 1017 30.03 846 24.98 11.1 51.9 74 6.6 43.8
05:40 1017 30.03 846 24.98 11.4 52.4 73 6.7 44
05:45 1017 30.03 846 24.98 11.3 52.4 73 6.8 44.2
05:50 1017 30.03 846 24.98 11.3 52.4 74 6.8 44.3
05:55 1017 30.03 846 24.98 11.3 52.4 75 7 44.6
06:00 1017 30.03 846 24.98 11.1 52 75 6.9 44.5
06:05 1017 30.03 846 24.98 11.1 51.9 75 6.9 44.5
06:10 1017 30.03 846 24.98 11.1 51.9 76 6.9 44.5
06:15 1017 30.03 846 24.98 11.1 51.9 76 7 44.6
06:20 1017 30.03 847 25.01 11.4 52.5 72 6.5 43.7
06:25 1018 30.06 847 25.01 11.8 53.2 73 7.1 44.8
06:30 1018 30.06 847 25.01 11.7 53.1 72 6.8 44.2
06:35 1018 30.06 847 25.01 11.8 53.2 73 7.1 44.8
06:40 1019 30.09 848 25.04 11.7 53 73 7 44.7
06:45 1020 30.12 849 25.07 11.9 53.4 73 7.2 44.9
06:50 1020 30.12 849 25.07 12.3 54.2 70 7.2 44.9
06:55 1020 30.12 849 25.07 12.7 54.9 72 7.8 46
07:00 1020 30.12 849 25.07 12.6 54.7 74 8.2 46.8
07:05 1020 30.12 849 25.07 12.5 54.4 77 8.5 47.3
07:10 1020 30.12 850 25.1 12.3 54.2 78 8.5 47.4
07:15 1020 30.12 850 25.1 12 53.6 80 8.6 47.5
07:20 1020 30.12 850 25.1 11.8 53.2 81 8.6 47.6
07:25 1020 30.12 849 25.07 11.7 53 82 8.7 47.6
07:30 1020 30.12 849 25.07 11.7 53 79 8.2 46.8
07:35 1020 30.12 849 25.07 11.9 53.5 81 8.9 47.9
07:40 1020 30.12 849 25.07 12 53.5 79 8.5 47.4
07:45 1020 30.12 849 25.07 12.2 53.9 83 9.3 48.7
07:50 1019 30.09 849 25.07 11.9 53.5 84 9.4 48.9
07:55 1019 30.09 848 25.04 12 53.5 84 9.4 48.8
08:00 1019 30.09 848 25.04 12.2 54 83 9.5 49.1
08:05 1019 30.09 848 25.04 12.7 54.8 83 9.8 49.7
08:10 1019 30.09 848 25.04 12.5 54.5 85 10 50
08:15 1019 30.09 848 25.04 12.4 54.3 85 9.9 49.8
08:20 1019 30.09 848 25.04 12.5 54.4 83 9.7 49.5
08:25 1019 30.09 848 25.04 12.6 54.6 83 9.7 49.4
08:30 1019 30.09 849 25.07 12.6 54.7 83 9.8 49.6
08:35 1020 30.12 849 25.07 12.8 55 81 9.5 49.1
08:40 1020 30.12 849 25.07 12.9 55.2 80 9.6 49.3
08:45 1019 30.09 848 25.04 12.9 55.2 82 10 50
08:50 1019 30.09 848 25.04 12.9 55.3 83 10.2 50.3
08:55 1019 30.09 848 25.04 13.2 55.8 81 10 50
09:00 1019 30.09 848 25.04 13.7 56.7 79 10.1 50.2
09:05 1018 30.06 848 25.04 14.5 58.1 79 11 51.7
09:10 1018 30.06 847 25.01 15 59.1 77 11 51.9
09:15 1018 30.06 847 25.01 15.2 59.4 74 10.7 51.3
09:20 1018 30.06 847 25.01 15.6 60 72 10.6 51
09:25 1018 30.06 847 25.01 16 60.8 69 10.3 50.5
09:30 1018 30.06 847 25.01 16.4 61.6 68 10.5 50.9
09:35 1018 30.06 847 25.01 16.8 62.2 65 10.3 50.6
09:40 1018 30.06 847 25.01 17.1 62.7 63 10 50
09:45 1018 30.06 847 25.01 17.5 63.6 61 10.1 50.2
09:50 1018 30.06 847 25.01 18.1 64.6 58 9.8 49.7
09:55 1018 30.06 847 25.01 18.5 65.4 56 9.8 49.7
10:00 1018 30.06 847 25.01 18.5 65.4 55 9.5 49.1
10:05 1018 30.06 847 25.01 18.7 65.6 57 10.1 50.1
10:10 1017 30.03 847 25.01 19.1 66.3 55 10 50
10:15 1017 30.03 846 24.98 19.3 66.8 56 10.4 50.8
10:20 1017 30.03 846 24.98 20 68 52 10 50.1
10:25 1017 30.03 846 24.98 19.8 67.6 53 10.2 50.3
10:30 1017 30.03 846 24.98 20.1 68.1 53 10.4 50.7
10:35 1017 30.03 846 24.98 20.3 68.5 53 10.6 51
10:40 1017 30.03 846 24.98 20.4 68.6 51 10.1 50.2
10:45 1017 30.03 846 24.98 20.3 68.6 47 8.9 48
10:50 1017 30.03 846 24.98 20.6 69.1 49 9.5 49.2
10:55 1017 30.03 846 24.98 21.1 70.1 46 9.2 48.6
11:00 1017 30.03 846 24.98 20.9 69.5 49 10 50
11:05 1017 30.03 846 24.98 20.7 69.3 48 9.6 49.3
11:10 1017 30.03 846 24.98 21.2 70.1 47 9.5 49.1
11:15 1017 30.03 846 24.98 21.2 70.1 49 10.1 50.3
11:20 1017 30.03 846 24.98 21.3 70.3 47 9.5 49.1
11:25 1017 30.03 846 24.98 21.1 70 48 9.9 49.8
11:30 1017 30.03 846 24.98 20.6 69.1 60 12.7 54.9
11:35 1017 30.03 846 24.98 19.3 66.8 64 12.4 54.3
11:40 1017 30.03 846 24.98 19.1 66.4 62 11.7 53.1
11:45 1017 30.03 846 24.98 19.1 66.3 63 12 53.7
11:50 1017 30.03 846 24.98 19.5 67 61 11.8 53.3
11:55 1017 30.03 846 24.98 19.5 67.1 62 12.1 53.8
12:00 1017 30.03 846 24.98 19.9 67.8 54 10.3 50.6
12:05 1016 30 846 24.98 20.7 69.3 47 9 48.2
12:10 1016 30 845 24.95 21.1 69.9 45 8.9 47.9
12:15 1016 30 845 24.95 21.7 71 42 8.4 47.1
12:20 1016 30 845 24.95 22.1 71.8 43 9.1 48.5
12:25 1016 30 845 24.95 22.2 72 44 9.7 49.4
12:30 1016 30 845 24.95 22.3 72.2 42 8.9 48
12:35 1016 30 845 24.95 22.5 72.5 41 8.9 48
12:40 1015 29.97 845 24.95 23 73.3 40 9 48.2
12:45 1015 29.97 845 24.95 23.3 73.9 39 8.9 48
12:50 1015 29.97 844 24.92 23.6 74.4 38 8.7 47.7
12:55 1015 29.97 844 24.92 24.1 75.4 36 8.5 47.3
13:00 1015 29.97 844 24.92 24.3 75.7 37 8.8 47.8
13:05 1014 29.94 844 24.92 24 75.3 38 8.9 48
13:10 1014 29.94 844 24.92 23.5 74.2 40 9.2 48.6
13:15 1014 29.94 844 24.92 23.5 74.3 37 8.3 47
13:20 1014 29.94 844 24.92 23.7 74.7 37 8.4 47.2
13:25 1014 29.94 844 24.92 23.7 74.7 37 8.3 46.9
13:30 1014 29.94 844 24.92 23.9 75.1 35 7.8 46
13:35 1014 29.94 843 24.89 24.3 75.8 35 8.1 46.6
13:40 1014 29.94 843 24.89 24.1 75.4 34 7.7 45.8
13:45 1014 29.94 843 24.89 24.2 75.6 35 8.1 46.5
13:50 1014 29.94 843 24.89 24.4 75.9 34 7.9 46.3
13:55 1014 29.94 843 24.89 24.3 75.7 34 7.7 45.9
14:00 1014 29.94 843 24.89 24.6 76.2 32 7.2 45
14:05 1014 29.94 843 24.89 24.8 76.6 32 7.2 45
14:10 1014 29.94 843 24.89 24.9 76.7 33 7.8 46
14:15 1014 29.94 843 24.89 25 77 32 7.3 45.1
14:20 1014 29.94 843 24.89 25 77 33 7.7 45.8
14:25 1014 29.94 843 24.89 25.2 77.4 32 7.5 45.4
14:30 1013 29.91 843 24.89 25.7 78.3 31 7.3 45.2
14:35 1013 29.91 843 24.89 25.6 78.1 31 7.7 45.8
14:40 1013 29.91 842 24.86 25.6 78 31 7.4 45.2
14:45 1013 29.91 843 24.89 25.4 77.6 32 7.7 45.8
14:50 1013 29.91 843 24.89 25.1 77.2 32 7.5 45.5
14:55 1013 29.91 843 24.89 24.7 76.4 33 7.6 45.6
15:00 1013 29.91 843 24.89 24.5 76 33 7.4 45.3
15:05 1013 29.91 843 24.89 24.3 75.7 34 7.5 45.5
15:10 1013 29.91 843 24.89 24.2 75.6 34 7.4 45.4
15:15 1013 29.91 843 24.89 24.1 75.5 33 7.2 44.9
15:20 1013 29.91 843 24.89 24.5 76.2 33 7.6 45.7
15:25 1013 29.91 842 24.86 24.8 76.6 33 7.8 46.1
15:30 1013 29.91 842 24.86 24.7 76.5 34 8 46.4
15:35 1013 29.91 842 24.86 24.9 76.9 26 4.2 39.5
15:40 1013 29.91 842 24.86 25.5 77.9 25 4.5 40.1
15:45 1013 29.91 842 24.86 25.6 78.1 25 4.2 39.6
15:50 1013 29.91 842 24.86 26.1 78.9 23 3.7 38.7
15:55 1012 29.88 842 24.86 26.2 79.2 23 3.7 38.6
16:00 1012 29.88 841 24.83 26.3 79.4 22 3 37.4
16:05 1012 29.88 841 24.83 26.5 79.7 21 2.5 36.6
16:10 1012 29.88 841 24.83 26.7 80 22 3.7 38.6
16:15 1012 29.88 841 24.83 26.9 80.4 20 2.2 36
16:20 1012 29.88 841 24.83 27.2 80.9 20 2.4 36.3
16:25 1012 29.88 841 24.83 27.2 81 19 2 35.5
16:30 1012 29.88 841 24.83 27 80.6 20 2.3 36.2
16:35 1012 29.88 841 24.83 26.9 80.3 21 2.7 36.8
16:40 1012 29.88 841 24.83 27 80.6 20 2.2 36
16:45 1012 29.88 841 24.83 27 80.6 21 2.9 37.2
16:50 1012 29.88 841 24.83 27.2 80.9 20 2.6 36.7
16:55 1011 29.85 841 24.83 27 80.7 21 3.1 37.5
17:00 1011 29.85 841 24.83 27.1 80.7 20 2.5 36.4
17:05 1012 29.88 841 24.83 27.1 80.7 21 3.2 37.8
17:10 1011 29.85 841 24.83 26.9 80.4 22 3.7 38.6
17:15 1011 29.85 841 24.83 27 80.6 21 3.4 38.2
17:20 1011 29.85 841 24.83 26.7 80 22 3.7 38.6
17:25 1011 29.85 840 24.81 26.3 79.3 22 3.5 38.3
17:30 1011 29.85 841 24.83 26.2 79.1 23 3.7 38.7
17:35 1012 29.88 841 24.83 26 78.7 29 6.9 44.4
17:40 1012 29.88 841 24.83 24.1 75.3 34 7.5 45.4
17:45 1012 29.88 841 24.83 22.6 72.6 36 7.1 44.8
17:50 1012 29.88 842 24.86 22.2 71.9 38 7.3 45.1
17:55 1013 29.91 842 24.86 21.9 71.5 40 8 46.5
18:00 1013 29.91 842 24.86 21.1 70 42 7.9 46.3
18:05 1013 29.91 842 24.86 20.5 68.9 42 7.5 45.4
18:10 1013 29.91 843 24.89 20.3 68.6 43 7.4 45.3
18:15 1014 29.94 843 24.89 20.2 68.3 42 7 44.5
18:20 1014 29.94 843 24.89 20 68 43 7 44.7
18:25 1014 29.94 843 24.89 20 67.9 43 7 44.6
18:30 1014 29.94 843 24.89 19.8 67.6 44 7.2 44.9
18:35 1014 29.94 843 24.89 19.6 67.2 43 6.9 44.5
18:40 1015 29.97 844 24.92 19.3 66.7 45 7.1 44.9
18:45 1015 29.97 844 24.92 18.8 65.9 47 7.4 45.3
18:50 1015 29.97 844 24.92 18.5 65.3 47 7.2 45
18:55 1015 29.97 844 24.92 18.1 64.7 48 7.2 44.9
19:00 1015 29.97 844 24.92 18 64.4 48 6.9 44.5
19:05 1015 29.97 845 24.95 18.1 64.6 47 6.6 43.9
19:10 1015 29.97 845 24.95 18.3 64.9 47 7 44.6
19:15 1016 30 845 24.95 18 64.5 49 7.1 44.9
19:20 1016 30 845 24.95 18 64.4 52 8.2 46.7
19:25 1016 30 845 24.95 17.8 64 54 8.4 47.1
19:30 1016 30 845 24.95 17.6 63.8 54 8.2 46.8
19:35 1016 30 845 24.95 17.5 63.5 54 8.1 46.6
19:40 1016 30 845 24.95 17.5 63.4 53 7.9 46.1
19:45 1016 30 845 24.95 17.3 63.2 53 7.7 45.9
19:50 1016 30 846 24.98 17.1 62.8 52 7.4 45.2
19:55 1016 30 846 24.98 17 62.6 53 7.4 45.3
20:00 1016 30 846 24.98 16.8 62.3 52 7.1 44.8
20:05 1016 30 846 24.98 16.7 62.1 52 6.9 44.5
20:10 1017 30.03 846 24.98 16.7 62.1 52 6.9 44.4
20:15 1017 30.03 846 24.98 16.7 62 52 6.8 44.2
20:20 1017 30.03 846 24.98 16.7 62 52 6.8 44.2
20:25 1017 30.03 846 24.98 16.6 61.8 52 6.8 44.3
20:30 1017 30.03 846 24.98 16.6 61.8 51 6.6 43.8
20:35 1017 30.03 846 24.98 16.5 61.7 51 6.4 43.6
20:40 1017 30.03 846 24.98 16.5 61.6 51 6.5 43.7
20:45 1017 30.03 846 24.98 16.3 61.4 52 6.6 44
20:50 1017 30.03 846 24.98 16.2 61.2 52 6.3 43.4
20:55 1017 30.03 846 24.98 16.1 61 52 6.5 43.7
21:00 1017 30.03 846 24.98 16 60.8 52 6.4 43.4
21:05 1017 30.03 846 24.98 15.9 60.6 53 6.3 43.4
21:10 1017 30.03 846 24.98 15.8 60.5 53 6.3 43.4
21:15 1017 30.03 846 24.98 15.7 60.3 53 6.3 43.3
21:20 1017 30.03 846 24.98 15.7 60.3 53 6.2 43.2
21:25 1017 30.03 846 24.98 15.8 60.4 52 6 42.8
21:30 1017 30.03 846 24.98 15.9 60.5 54 6.6 43.9
21:35 1017 30.03 846 24.98 15.6 60 54 6.4 43.6
21:40 1017 30.03 846 24.98 15.5 59.8 55 6.4 43.6
21:45 1017 30.03 846 24.98 15.4 59.7 59 7.6 45.6
21:50 1017 30.03 846 24.98 15.5 60 53 6 42.8
21:55 1017 30.03 846 24.98 15.7 60.2 53 6.2 43.2
22:00 1017 30.03 846 24.98 15.6 60.1 54 6.3 43.4
22:05 1017 30.03 846 24.98 15.3 59.5 55 6.4 43.5
22:10 1017 30.03 846 24.98 15.1 59.1 55 6.3 43.3
22:15 1017 30.03 846 24.98 14.9 58.8 55 6 42.9
22:20 1017 30.03 846 24.98 15 59.1 55 6.1 42.9
22:25 1017 30.03 846 24.98 15.1 59.1 56 6.5 43.8
22:30 1017 30.03 846 24.98 15.1 59.2 55 6.1 43.1
22:35 1017 30.03 846 24.98 14.9 58.9 55 6.2 43.1
22:40 1017 30.03 846 24.98 14.8 58.6 55 6 42.8
22:45 1017 30.03 846 24.98 14.8 58.6 57 6.5 43.8
22:50 1017 30.03 846 24.98 14.3 57.7 59 6.4 43.6
22:55 1017 30.03 846 24.98 14 57.2 61 6.7 44
23:00 1017 30.03 846 24.98 13.7 56.7 61 6.5 43.7
23:05 1017 30.03 846 24.98 13.6 56.4 62 6.4 43.5
23:10 1017 30.03 846 24.98 13.5 56.3 62 6.5 43.6
23:15 1017 30.03 846 24.98 13.4 56.1 62 6.4 43.5
23:20 1017 30.03 846 24.98 13.4 56 63 6.5 43.7
23:25 1017 30.03 846 24.98 13.3 55.9 63 6.5 43.8
23:30 1017 30.03 846 24.98 13.1 55.6 64 6.5 43.7
23:35 1017 30.03 847 25.01 12.9 55.2 65 6.4 43.6
23:40 1017 30.03 847 25.01 12.8 55 64 6.3 43.3
23:45 1017 30.03 847 25.01 13 55.4 62 6 42.9
23:50 1017 30.03 847 25.01 13.1 55.7 63 6.2 43.2
23:55 1017 30.03 847 25.01 13.1 55.6 62 6.1 43
24:00 1017 30.03 847 25.01 13.1 55.5 63 6.3 43.3